createdAt,value
2023-04-17T00:00:28.722Z,8.11
2023-04-17T00:02:55.773Z,8.08
2023-04-17T00:05:23.471Z,8.13
2023-04-17T00:07:50.251Z,8.08
2023-04-17T00:10:17.085Z,8.10
2023-04-17T00:12:43.872Z,8.05
2023-04-17T00:15:11.130Z,8.10
2023-04-17T00:17:37.948Z,8.03
2023-04-17T00:20:10.639Z,8.01
2023-04-17T00:22:38.468Z,7.95
2023-04-17T00:25:05.816Z,7.90
2023-04-17T00:27:32.811Z,7.95
2023-04-17T00:29:59.543Z,8.02
2023-04-17T00:32:26.414Z,7.93
2023-04-17T00:34:55.609Z,7.92
2023-04-17T00:37:22.725Z,7.92
2023-04-17T00:39:49.502Z,7.86
2023-04-17T00:42:16.514Z,7.94
2023-04-17T00:44:43.349Z,7.87
2023-04-17T00:47:10.285Z,7.80
2023-04-17T00:49:37.124Z,7.87
2023-04-17T00:52:04.330Z,7.83
2023-04-17T00:54:32.035Z,7.86
2023-04-17T00:57:00.021Z,7.81
2023-04-17T00:59:28.721Z,7.82
2023-04-17T01:01:55.735Z,7.76
2023-04-17T01:04:22.567Z,7.80
2023-04-17T01:06:49.512Z,7.83
2023-04-17T01:09:17.021Z,7.81
2023-04-17T01:11:43.747Z,7.86
2023-04-17T01:14:10.594Z,7.76
2023-04-17T01:16:39.517Z,7.73
2023-04-17T01:19:07.396Z,7.70
2023-04-17T01:21:34.209Z,7.77
2023-04-17T01:24:02.985Z,7.73
2023-04-17T01:26:31.643Z,7.71
2023-04-17T01:28:59.876Z,7.70
2023-04-17T01:31:31.017Z,7.82
2023-04-17T01:33:58.071Z,7.75
2023-04-17T01:36:24.894Z,7.73
2023-04-17T01:38:51.615Z,7.72
2023-04-17T01:41:18.593Z,7.67
2023-04-17T01:43:47.760Z,7.64
2023-04-17T01:46:14.628Z,7.66
2023-04-17T01:48:41.677Z,7.61
2023-04-17T01:51:08.581Z,7.58
2023-04-17T01:53:40.345Z,7.62
2023-04-17T01:56:07.945Z,7.58
2023-04-17T01:58:34.916Z,7.62
2023-04-17T02:01:01.766Z,7.58
2023-04-17T02:03:28.651Z,7.56
2023-04-17T02:05:55.845Z,7.51
2023-04-17T02:08:22.833Z,7.51
2023-04-17T02:10:50.026Z,7.49
2023-04-17T02:13:16.791Z,7.52
2023-04-17T02:15:43.829Z,7.50
2023-04-17T02:18:10.874Z,7.49
2023-04-17T02:20:38.183Z,7.47
2023-04-17T02:23:06.312Z,7.47
2023-04-17T02:25:34.309Z,7.46
2023-04-17T02:28:01.381Z,7.41
2023-04-17T02:30:28.444Z,7.44
2023-04-17T02:32:56.386Z,7.41
2023-04-17T02:35:29.406Z,7.38
2023-04-17T02:37:56.289Z,7.35
2023-04-17T02:40:23.212Z,7.38
2023-04-17T02:42:50.027Z,7.32
2023-04-17T02:45:16.758Z,7.31
2023-04-17T02:47:43.670Z,7.40
2023-04-17T02:50:11.377Z,7.40
2023-04-17T02:52:38.278Z,7.34
2023-04-17T02:55:05.920Z,7.33
2023-04-17T02:57:32.968Z,7.38
2023-04-17T03:00:04.560Z,7.47
2023-04-17T03:02:31.448Z,7.47
2023-04-17T03:04:58.357Z,7.41
2023-04-17T03:07:27.681Z,7.46
2023-04-17T03:09:54.420Z,7.43
2023-04-17T03:12:21.195Z,7.47
2023-04-17T03:14:47.916Z,7.58
2023-04-17T03:17:15.807Z,7.58
2023-04-17T03:19:42.597Z,7.58
2023-04-17T03:22:10.864Z,7.50
2023-04-17T03:24:39.514Z,7.46
2023-04-17T03:27:06.264Z,7.46
2023-04-17T03:29:33.034Z,7.40
2023-04-17T03:31:59.886Z,7.37
2023-04-17T03:34:27.098Z,7.37
2023-04-17T03:36:53.843Z,7.37
2023-04-17T03:39:20.920Z,7.35
2023-04-17T03:41:47.772Z,7.37
2023-04-17T03:44:14.542Z,7.39
2023-04-17T03:46:41.398Z,7.36
2023-04-17T03:49:08.120Z,7.43
2023-04-17T03:51:34.890Z,7.41
2023-04-17T03:54:01.661Z,7.43
2023-04-17T03:56:28.465Z,7.42
2023-04-17T03:58:55.280Z,7.36
2023-04-17T04:01:22.578Z,7.38
2023-04-17T04:03:49.642Z,7.39
2023-04-17T04:06:20.472Z,7.41
2023-04-17T04:08:47.267Z,7.46
2023-04-17T04:11:14.198Z,7.43
2023-04-17T04:13:41.225Z,7.42
2023-04-17T04:16:08.514Z,7.42
2023-04-17T04:18:36.634Z,7.43
2023-04-17T04:21:03.652Z,7.38
2023-04-17T04:23:30.830Z,7.41
2023-04-17T04:25:58.238Z,7.43
2023-04-17T04:28:25.008Z,7.55
2023-04-17T04:30:53.987Z,7.50
2023-04-17T04:33:21.497Z,7.48
2023-04-17T04:35:48.945Z,7.49
2023-04-17T04:38:17.390Z,7.56
2023-04-17T04:40:50.306Z,7.63
2023-04-17T04:43:17.073Z,7.66
2023-04-17T04:45:44.525Z,7.66
2023-04-17T04:48:11.293Z,7.71
2023-04-17T04:50:38.117Z,7.76
2023-04-17T04:53:04.994Z,7.78
2023-04-17T04:55:31.780Z,7.79
2023-04-17T04:57:59.018Z,7.85
2023-04-17T05:00:26.641Z,7.82
2023-04-17T05:02:53.527Z,7.87
2023-04-17T05:05:20.688Z,7.88
2023-04-17T05:07:47.706Z,7.96
2023-04-17T05:10:14.455Z,7.97
2023-04-17T05:12:41.891Z,7.96
2023-04-17T05:15:09.210Z,7.95
2023-04-17T05:17:36.667Z,8.00
2023-04-17T05:20:07.824Z,8.04
2023-04-17T05:22:34.976Z,8.04
2023-04-17T05:25:01.942Z,8.13
2023-04-17T05:27:28.638Z,8.12
2023-04-17T05:29:55.569Z,8.26
2023-04-17T05:32:22.870Z,8.27
2023-04-17T05:34:50.465Z,8.37
2023-04-17T05:37:17.552Z,8.43
2023-04-17T05:39:44.285Z,8.42
2023-04-17T05:42:11.105Z,8.41
2023-04-17T05:44:37.858Z,8.38
2023-04-17T05:47:04.587Z,8.48
2023-04-17T05:49:31.307Z,8.55
2023-04-17T05:51:58.126Z,8.55
2023-04-17T05:54:24.987Z,8.56
2023-04-17T05:56:52.162Z,8.59
2023-04-17T05:59:19.005Z,8.53
2023-04-17T06:01:45.770Z,8.62
2023-04-17T06:04:13.320Z,8.64
2023-04-17T06:06:40.417Z,8.70
2023-04-17T06:09:09.096Z,8.70
2023-04-17T06:11:35.842Z,8.79
2023-04-17T06:14:02.656Z,8.94
2023-04-17T06:16:29.802Z,9.02
2023-04-17T06:18:56.645Z,8.95
2023-04-17T06:21:23.488Z,9.04
2023-04-17T06:23:50.223Z,8.99
2023-04-17T06:26:17.112Z,9.00
2023-04-17T06:28:43.893Z,9.14
2023-04-17T06:31:11.007Z,9.21
2023-04-17T06:33:37.780Z,9.25
2023-04-17T06:36:04.731Z,9.25
2023-04-17T06:38:31.439Z,9.30
2023-04-17T06:40:58.191Z,9.38
2023-04-17T06:43:25.036Z,9.59
2023-04-17T06:45:51.900Z,9.57
2023-04-17T06:48:18.613Z,9.56
2023-04-17T06:50:45.503Z,9.43
2023-04-17T06:53:12.254Z,9.74
2023-04-17T06:55:39.062Z,9.67
2023-04-17T06:58:08.481Z,9.59
2023-04-17T07:00:35.542Z,9.88
2023-04-17T07:03:02.943Z,9.87
2023-04-17T07:05:29.878Z,9.87
2023-04-17T07:07:56.766Z,10.01
2023-04-17T07:10:23.689Z,10.15
2023-04-17T07:12:50.798Z,10.35
2023-04-17T07:15:17.847Z,10.56
2023-04-17T07:17:44.733Z,10.24
2023-04-17T07:20:12.071Z,10.45
2023-04-17T07:22:39.379Z,10.41
2023-04-17T07:25:07.225Z,10.42
2023-04-17T07:27:33.969Z,10.49
2023-04-17T07:30:00.865Z,10.32
2023-04-17T07:32:30.661Z,10.43
2023-04-17T07:34:57.829Z,10.17
2023-04-17T07:37:24.595Z,10.41
2023-04-17T07:39:51.441Z,10.42
2023-04-17T07:42:18.303Z,10.01
2023-04-17T07:44:46.042Z,10.03
2023-04-17T07:47:13.019Z,10.13
2023-04-17T07:49:40.759Z,10.22
2023-04-17T07:52:07.514Z,10.32
2023-04-17T07:54:34.515Z,10.42
2023-04-17T07:57:03.155Z,10.39
2023-04-17T07:59:33.213Z,10.27
2023-04-17T08:02:00.207Z,10.64
2023-04-17T08:04:27.221Z,10.77
2023-04-17T08:06:54.261Z,10.52
2023-04-17T08:09:22.421Z,10.59
2023-04-17T08:11:57.172Z,10.55
2023-04-17T08:14:25.361Z,10.49
2023-04-17T08:16:52.505Z,10.63
2023-04-17T08:19:19.456Z,10.88
2023-04-17T08:21:50.117Z,10.60
2023-04-17T08:24:19.737Z,10.63
2023-04-17T08:26:47.620Z,10.64
2023-04-17T08:29:14.665Z,10.81
2023-04-17T08:31:41.680Z,11.06
2023-04-17T08:34:14.303Z,10.90
2023-04-17T08:36:42.030Z,10.68
2023-04-17T08:39:10.463Z,10.89
2023-04-17T08:41:49.557Z,10.91
2023-04-17T08:44:21.610Z,10.91
2023-04-17T08:46:49.808Z,10.73
2023-04-17T08:49:16.675Z,10.72
2023-04-17T08:51:43.498Z,10.82
2023-04-17T08:54:10.657Z,10.66
2023-04-17T08:56:37.522Z,10.73
2023-04-17T08:59:04.821Z,10.94
2023-04-17T09:01:31.755Z,10.93
2023-04-17T09:03:58.797Z,10.95
2023-04-17T09:06:25.771Z,10.82
2023-04-17T09:09:01.973Z,10.91
2023-04-17T09:11:28.810Z,10.96
2023-04-17T09:13:55.676Z,10.89
2023-04-17T09:16:24.835Z,11.18
2023-04-17T09:18:51.842Z,11.04
2023-04-17T09:21:19.269Z,11.45
2023-04-17T09:23:47.211Z,11.24
2023-04-17T09:26:15.909Z,11.30
2023-04-17T09:29:02.118Z,11.48
2023-04-17T09:31:30.755Z,11.41
2023-04-17T09:34:06.183Z,11.82
2023-04-17T09:36:34.917Z,11.50
2023-04-17T09:39:04.699Z,11.14
2023-04-17T09:41:33.585Z,11.42
2023-04-17T09:44:02.234Z,12.13
2023-04-17T09:46:38.460Z,11.69
2023-04-17T09:49:19.279Z,11.66
2023-04-17T09:51:46.781Z,11.87
2023-04-17T09:54:16.168Z,11.82
2023-04-17T09:56:43.788Z,11.90
2023-04-17T09:59:11.273Z,11.81
2023-04-17T10:01:38.604Z,11.48
2023-04-17T10:04:06.471Z,11.50
2023-04-17T10:06:34.761Z,11.62
2023-04-17T10:09:04.099Z,11.18
2023-04-17T10:11:36.744Z,10.83
2023-04-17T10:14:24.782Z,10.85
2023-04-17T10:16:51.844Z,10.75
2023-04-17T10:19:35.957Z,10.68
2023-04-17T10:22:20.830Z,10.75
2023-04-17T10:25:13.402Z,10.73
2023-04-17T10:27:40.518Z,10.61
2023-04-17T10:30:16.391Z,10.85
2023-04-17T10:32:46.153Z,10.44
2023-04-17T10:35:15.906Z,10.34
2023-04-17T10:37:48.937Z,10.33
2023-04-17T10:40:23.327Z,10.33
2023-04-17T10:43:12.019Z,10.45
2023-04-17T10:46:11.397Z,10.29
2023-04-17T10:48:54.979Z,10.18
2023-04-17T10:51:21.735Z,10.29
2023-04-17T10:54:10.584Z,10.32
2023-04-17T10:56:48.968Z,10.42
2023-04-17T10:59:21.033Z,10.40
2023-04-17T11:01:47.807Z,10.54
2023-04-17T11:04:22.701Z,10.39
2023-04-17T11:06:51.206Z,10.33
2023-04-17T11:09:20.963Z,10.55
2023-04-17T11:11:47.769Z,10.63
2023-04-17T11:14:19.766Z,10.61
2023-04-17T11:16:48.520Z,10.47
2023-04-17T11:19:23.376Z,10.49
2023-04-17T11:21:54.480Z,10.44
2023-04-17T11:24:25.172Z,10.57
2023-04-17T11:26:52.073Z,10.48
2023-04-17T11:29:20.984Z,10.52
2023-04-17T11:31:49.309Z,10.53
2023-04-17T11:34:17.282Z,10.55
2023-04-17T11:36:57.623Z,10.75
2023-04-17T11:39:34.910Z,10.46
2023-04-17T11:42:05.480Z,10.46
2023-04-17T11:44:32.553Z,10.45
2023-04-17T11:46:59.781Z,10.32
2023-04-17T11:49:28.177Z,10.31
2023-04-17T11:51:58.693Z,10.37
2023-04-17T11:54:37.993Z,10.40
2023-04-17T11:57:07.988Z,10.44
2023-04-17T11:59:39.023Z,10.60
2023-04-17T12:02:07.987Z,10.63
2023-04-17T12:04:37.119Z,10.76
2023-04-17T12:07:05.831Z,10.78
2023-04-17T12:09:36.309Z,10.85
2023-04-17T12:12:07.638Z,10.88
2023-04-17T12:14:34.942Z,10.88
2023-04-17T12:17:01.754Z,10.82
2023-04-17T12:19:30.029Z,10.70
2023-04-17T12:21:57.645Z,10.52
2023-04-17T12:24:25.417Z,10.46
2023-04-17T12:26:52.726Z,10.42
2023-04-17T12:29:26.588Z,10.33
2023-04-17T12:32:03.877Z,10.22
2023-04-17T12:34:31.055Z,10.39
2023-04-17T12:36:57.842Z,10.28
2023-04-17T12:39:24.724Z,10.37
2023-04-17T12:41:51.572Z,10.39
2023-04-17T12:44:18.337Z,10.18
2023-04-17T12:46:45.141Z,10.08
2023-04-17T12:49:12.196Z,10.24
2023-04-17T12:51:39.235Z,10.17
2023-04-17T12:54:05.998Z,10.22
2023-04-17T12:56:32.956Z,10.36
2023-04-17T12:59:02.703Z,10.35
2023-04-17T13:01:30.130Z,10.35
2023-04-17T13:03:57.278Z,10.48
2023-04-17T13:06:24.405Z,10.38
2023-04-17T13:08:51.355Z,10.43
2023-04-17T13:11:18.182Z,10.58
2023-04-17T13:13:45.233Z,10.82
2023-04-17T13:16:12.149Z,10.83
2023-04-17T13:18:39.012Z,11.03
2023-04-17T13:21:06.006Z,10.81
2023-04-17T13:23:32.753Z,11.03
2023-04-17T13:25:59.819Z,10.97
2023-04-17T13:28:26.570Z,10.98
2023-04-17T13:30:53.413Z,11.26
2023-04-17T13:33:20.590Z,11.30
2023-04-17T13:35:47.671Z,11.05
2023-04-17T13:38:14.620Z,10.90
2023-04-17T13:40:41.541Z,10.94
2023-04-17T13:43:09.353Z,10.86
2023-04-17T13:45:36.338Z,10.93
2023-04-17T13:48:03.280Z,10.78
2023-04-17T13:50:30.066Z,10.80
2023-04-17T13:52:56.859Z,10.78
2023-04-17T13:55:24.223Z,10.76
2023-04-17T13:57:51.867Z,10.75
2023-04-17T14:00:19.095Z,10.98
2023-04-17T14:02:46.477Z,11.03
2023-04-17T14:05:13.561Z,10.97
2023-04-17T14:07:40.536Z,10.98
2023-04-17T14:10:08.239Z,10.76
2023-04-17T14:12:35.008Z,10.80
2023-04-17T14:15:01.904Z,10.92
2023-04-17T14:17:29.134Z,10.85
2023-04-17T14:19:56.135Z,11.00
2023-04-17T14:22:22.899Z,10.90
2023-04-17T14:24:49.632Z,10.94
2023-04-17T14:27:16.478Z,10.88
2023-04-17T14:29:43.458Z,10.95
2023-04-17T14:32:10.227Z,11.13
2023-04-17T14:34:37.041Z,11.12
2023-04-17T14:37:03.834Z,11.13
2023-04-17T14:39:31.635Z,10.99
2023-04-17T14:42:00.548Z,10.93
2023-04-17T14:44:28.769Z,10.73
2023-04-17T14:46:57.104Z,10.60
2023-04-17T14:49:24.416Z,10.50
2023-04-17T14:51:51.338Z,10.58
2023-04-17T14:54:18.060Z,10.74
2023-04-17T14:56:44.933Z,10.89
2023-04-17T14:59:12.358Z,10.84
2023-04-17T15:01:39.626Z,10.85
2023-04-17T15:04:06.883Z,10.88
2023-04-17T15:06:33.911Z,10.81
2023-04-17T15:09:00.778Z,10.79
2023-04-17T15:11:27.572Z,10.83
2023-04-17T15:13:54.939Z,10.55
2023-04-17T15:16:21.893Z,10.57
2023-04-17T15:18:48.920Z,10.59
2023-04-17T15:21:16.459Z,10.60
2023-04-17T15:23:43.476Z,10.58
2023-04-17T15:26:10.395Z,10.54
2023-04-17T15:28:37.240Z,10.56
2023-04-17T15:31:04.013Z,10.60
2023-04-17T15:33:31.388Z,10.63
2023-04-17T15:35:59.465Z,10.78
2023-04-17T15:38:27.316Z,10.84
2023-04-17T15:40:56.001Z,10.89
2023-04-17T15:43:23.498Z,10.83
2023-04-17T15:45:51.509Z,10.82
2023-04-17T15:48:18.388Z,10.87
2023-04-17T15:50:45.169Z,10.87
2023-04-17T15:53:13.224Z,10.96
2023-04-17T15:55:41.529Z,11.07
2023-04-17T15:58:08.489Z,10.95
2023-04-17T16:00:35.286Z,11.08
2023-04-17T16:03:02.274Z,10.93
2023-04-17T16:05:30.507Z,10.95
2023-04-17T16:07:57.546Z,11.00
2023-04-17T16:10:24.593Z,11.06
2023-04-17T16:12:51.622Z,10.92
2023-04-17T16:15:18.599Z,10.96
2023-04-17T16:17:46.156Z,10.97
2023-04-17T16:20:13.212Z,10.83
2023-04-17T16:22:40.522Z,11.02
2023-04-17T16:25:08.739Z,10.97
2023-04-17T16:27:37.868Z,11.05
2023-04-17T16:30:06.121Z,11.05
2023-04-17T16:32:33.169Z,11.08
2023-04-17T16:35:00.137Z,10.90
2023-04-17T16:37:27.146Z,11.01
2023-04-17T16:39:53.876Z,10.97
2023-04-17T16:42:20.668Z,10.71
2023-04-17T16:44:51.425Z,10.69
2023-04-17T16:47:18.317Z,10.85
2023-04-17T16:49:45.181Z,10.71
2023-04-17T16:52:11.972Z,10.91
2023-04-17T16:54:38.701Z,10.86
2023-04-17T16:57:06.180Z,10.80
2023-04-17T16:59:33.335Z,10.84
2023-04-17T17:02:02.456Z,10.80
2023-04-17T17:04:29.808Z,10.72
2023-04-17T17:06:56.805Z,10.81
2023-04-17T17:09:23.561Z,10.76
2023-04-17T17:11:50.490Z,10.62
2023-04-17T17:14:17.211Z,10.57
2023-04-17T17:16:44.043Z,10.59
2023-04-17T17:19:10.979Z,10.59
2023-04-17T17:21:38.306Z,10.52
2023-04-17T17:24:06.735Z,10.49
2023-04-17T17:26:33.539Z,10.44
2023-04-17T17:29:00.610Z,10.41
2023-04-17T17:31:27.672Z,10.41
2023-04-17T17:33:55.502Z,10.27
2023-04-17T17:36:22.394Z,10.16
2023-04-17T17:38:57.476Z,10.29
2023-04-17T17:41:25.304Z,10.29
2023-04-17T17:43:52.218Z,10.27
2023-04-17T17:46:21.814Z,10.15
2023-04-17T17:48:48.646Z,10.15
2023-04-17T17:51:15.448Z,10.16
2023-04-17T17:53:42.253Z,10.05
2023-04-17T17:56:08.977Z,10.12
2023-04-17T17:58:35.813Z,10.07
2023-04-17T18:01:03.123Z,10.02
2023-04-17T18:03:29.974Z,9.95
2023-04-17T18:05:56.897Z,9.91
2023-04-17T18:08:23.727Z,9.87
2023-04-17T18:10:50.515Z,9.78
2023-04-17T18:13:17.281Z,9.72
2023-04-17T18:15:44.289Z,9.68
2023-04-17T18:18:13.753Z,9.59
2023-04-17T18:20:40.765Z,9.54
2023-04-17T18:23:07.584Z,9.50
2023-04-17T18:25:36.127Z,9.42
2023-04-17T18:28:04.003Z,9.37
2023-04-17T18:30:31.267Z,9.29
2023-04-17T18:32:58.212Z,9.24
2023-04-17T18:35:25.102Z,9.14
2023-04-17T18:37:53.246Z,9.13
2023-04-17T18:40:20.112Z,9.07
2023-04-17T18:42:47.734Z,9.06
2023-04-17T18:45:16.236Z,9.10
2023-04-17T18:47:43.360Z,9.07
2023-04-17T18:50:11.368Z,9.06
2023-04-17T18:52:44.050Z,9.07
2023-04-17T18:55:14.032Z,9.11
2023-04-17T18:57:40.834Z,9.17
2023-04-17T19:00:08.860Z,9.23
2023-04-17T19:02:37.318Z,9.25
2023-04-17T19:05:04.760Z,9.23
2023-04-17T19:07:31.667Z,9.16
2023-04-17T19:09:58.475Z,9.15
2023-04-17T19:12:25.324Z,9.05
2023-04-17T19:14:52.178Z,8.99
2023-04-17T19:17:19.052Z,8.90
2023-04-17T19:19:45.933Z,8.82
2023-04-17T19:22:14.118Z,8.62
2023-04-17T19:24:42.871Z,8.63
2023-04-17T19:27:09.889Z,8.60
2023-04-17T19:29:37.345Z,8.35
2023-04-17T19:32:04.331Z,8.35
2023-04-17T19:34:34.203Z,8.31
2023-04-17T19:37:00.941Z,8.18
2023-04-17T19:39:28.109Z,8.15
2023-04-17T19:41:54.839Z,8.15
2023-04-17T19:44:21.621Z,8.08
2023-04-17T19:46:48.765Z,7.96
2023-04-17T19:49:15.881Z,7.70
2023-04-17T19:51:42.663Z,7.69
2023-04-17T19:54:12.196Z,7.84
2023-04-17T19:56:39.567Z,7.71
2023-04-17T19:59:06.418Z,7.77
2023-04-17T20:01:33.569Z,7.72
2023-04-17T20:04:00.486Z,7.62
2023-04-17T20:06:27.376Z,7.73
2023-04-17T20:08:56.601Z,7.74
2023-04-17T20:11:23.909Z,7.77
2023-04-17T20:13:51.986Z,7.71
2023-04-17T20:16:19.052Z,7.72
2023-04-17T20:18:46.011Z,7.43
2023-04-17T20:21:13.457Z,7.38
2023-04-17T20:23:41.369Z,7.45
2023-04-17T20:26:08.440Z,7.39
2023-04-17T20:28:35.286Z,7.36
2023-04-17T20:31:03.630Z,7.20
2023-04-17T20:33:30.604Z,7.06
2023-04-17T20:35:57.452Z,6.85
2023-04-17T20:38:24.191Z,6.76
2023-04-17T20:40:50.936Z,6.91
2023-04-17T20:43:17.995Z,6.92
2023-04-17T20:45:44.854Z,6.91
2023-04-17T20:48:11.765Z,6.98
2023-04-17T20:50:38.576Z,6.88
2023-04-17T20:53:05.517Z,6.77
2023-04-17T20:55:32.331Z,6.65
2023-04-17T20:57:59.110Z,6.64
2023-04-17T21:00:26.401Z,6.86
2023-04-17T21:02:53.153Z,6.67
2023-04-17T21:05:20.041Z,6.35
2023-04-17T21:07:47.465Z,6.49
2023-04-17T21:10:14.830Z,6.47
2023-04-17T21:12:41.749Z,6.44
2023-04-17T21:15:09.781Z,6.59
2023-04-17T21:17:36.653Z,6.43
2023-04-17T21:20:05.403Z,6.47
2023-04-17T21:22:32.172Z,6.49
2023-04-17T21:24:58.920Z,6.45
2023-04-17T21:27:25.808Z,6.25
2023-04-17T21:29:52.587Z,6.38
2023-04-17T21:32:19.300Z,6.24
2023-04-17T21:34:46.107Z,6.13
2023-04-17T21:37:12.913Z,6.14
2023-04-17T21:39:39.620Z,6.21
2023-04-17T21:42:06.462Z,6.28
2023-04-17T21:44:33.236Z,6.03
2023-04-17T21:46:59.989Z,6.05
2023-04-17T21:49:26.719Z,5.99
2023-04-17T21:51:53.667Z,5.93
2023-04-17T21:54:20.509Z,6.04
2023-04-17T21:56:47.256Z,5.87
2023-04-17T21:59:14.000Z,5.90
2023-04-17T22:01:40.874Z,5.88
2023-04-17T22:04:07.670Z,6.07
2023-04-17T22:06:37.801Z,6.10
2023-04-17T22:09:05.183Z,6.12
2023-04-17T22:11:32.094Z,6.13
2023-04-17T22:13:58.961Z,5.99
2023-04-17T22:16:25.731Z,6.15
2023-04-17T22:18:53.343Z,5.99
2023-04-17T22:21:20.105Z,6.26
2023-04-17T22:23:46.904Z,6.08
2023-04-17T22:26:13.730Z,6.22
2023-04-17T22:28:41.617Z,6.16
2023-04-17T22:31:10.157Z,6.23
2023-04-17T22:33:36.955Z,6.11
2023-04-17T22:36:03.890Z,6.12
2023-04-17T22:38:30.621Z,6.15
2023-04-17T22:40:57.333Z,5.87
2023-04-17T22:43:24.072Z,5.90
2023-04-17T22:45:50.817Z,6.01
2023-04-17T22:48:18.559Z,5.74
2023-04-17T22:50:45.815Z,5.92
2023-04-17T22:53:12.550Z,5.81
2023-04-17T22:55:39.400Z,5.66
2023-04-17T22:58:06.131Z,5.52
2023-04-17T23:00:32.949Z,5.81
2023-04-17T23:02:59.857Z,5.77
2023-04-17T23:05:29.607Z,5.80
2023-04-17T23:07:56.370Z,5.77
2023-04-17T23:10:23.200Z,5.76
2023-04-17T23:12:50.439Z,5.82
2023-04-17T23:15:17.463Z,5.53
2023-04-17T23:17:44.265Z,5.35
2023-04-17T23:20:11.315Z,5.18
2023-04-17T23:22:38.087Z,5.41
2023-04-17T23:25:05.362Z,5.63
2023-04-17T23:27:32.304Z,5.59
2023-04-17T23:29:59.777Z,5.72
2023-04-17T23:32:27.109Z,5.62
2023-04-17T23:34:53.926Z,5.24
2023-04-17T23:37:20.832Z,5.28
2023-04-17T23:39:47.865Z,5.13
2023-04-17T23:42:14.777Z,4.90
2023-04-17T23:44:41.844Z,5.15
2023-04-17T23:47:09.609Z,5.07
2023-04-17T23:49:36.484Z,5.23
2023-04-17T23:52:03.997Z,5.37
2023-04-17T23:54:30.779Z,5.25
2023-04-17T23:56:58.287Z,5.29
2023-04-17T23:59:25.084Z,5.21
